Time;durP1;ratioP1;P1;durP2;ratioP2;P2;SDS_P1;SDS_P2;PMS_P1;PMS_P2;Temp;Humidity;BMP_temperature;BMP_pressure;BME280_temperature;BME280_humidity;BME280_pressure;Samples;Min_cycle;Max_cycle;Signal;HPM_P1;HPM_P2
2021/10/16 00:01:13;;;;;;;4.63;1.27;;;9.60;99.90;;;;;;5105111;28;20130;-81
2021/10/16 00:03:40;;;;;;;11.15;1.08;;;9.50;99.90;;;;;;5103340;28;20040;-81
2021/10/16 00:06:06;;;;;;;12.55;2.05;;;9.50;99.90;;;;;;5097126;28;20036;-81
2021/10/16 00:08:31;;;;;;;8.52;1.60;;;9.50;99.90;;;;;;5074659;28;20074;-81
2021/10/16 00:10:57;;;;;;;11.77;1.35;;;9.50;99.90;;;;;;5135277;27;20071;-81
2021/10/16 00:13:23;;;;;;;10.43;1.50;;;9.50;99.90;;;;;;5092555;28;20045;-81
2021/10/16 00:15:49;;;;;;;11.30;1.25;;;9.50;99.90;;;;;;5125901;27;20457;-81
2021/10/16 00:18:15;;;;;;;7.95;1.50;;;9.50;99.90;;;;;;5092363;28;20050;-81
2021/10/16 00:20:41;;;;;;;5.55;1.17;;;9.60;99.90;;;;;;5108594;27;20114;-81
2021/10/16 00:23:07;;;;;;;9.98;1.10;;;9.60;99.90;;;;;;5092167;28;20051;-81
2021/10/16 00:25:33;;;;;;;8.25;1.30;;;9.60;99.90;;;;;;5122060;27;20031;-81
2021/10/16 00:27:59;;;;;;;8.45;1.30;;;9.60;99.90;;;;;;5126585;27;20035;-81
2021/10/16 00:30:25;;;;;;;7.65;1.60;;;9.60;99.90;;;;;;5123313;27;20348;-81
2021/10/16 00:32:51;;;;;;;8.73;1.13;;;9.60;99.90;;;;;;5126108;27;20092;-81
2021/10/16 00:35:18;;;;;;;7.57;1.25;;;9.60;99.90;;;;;;5117801;27;20035;-81
2021/10/16 00:37:43;;;;;;;7.93;1.23;;;9.60;99.90;;;;;;5112858;27;20030;-81
2021/10/16 00:40:10;;;;;;;8.10;1.23;;;9.60;99.90;;;;;;5089851;27;20544;-81
2021/10/16 00:42:49;;;;;;;7.53;1.10;;;9.60;99.90;;;;;;5112738;27;20095;-81
2021/10/16 00:45:16;;;;;;;5.25;1.10;;;9.60;99.90;;;;;;5076389;27;20039;-81
2021/10/16 00:47:42;;;;;;;6.38;1.10;;;9.60;99.90;;;;;;5129743;27;20035;-81
2021/10/16 00:50:09;;;;;;;7.00;1.33;;;9.60;99.90;;;;;;5109022;27;20039;-81
2021/10/16 00:52:36;;;;;;;10.32;1.20;;;9.60;99.90;;;;;;5077769;28;20491;-81
2021/10/16 00:55:05;;;;;;;8.35;0.93;;;9.60;99.90;;;;;;5102945;28;20104;-81
2021/10/16 00:57:31;;;;;;;9.90;2.28;;;9.60;99.90;;;;;;5071086;28;20047;-81
2021/10/16 00:59:57;;;;;;;8.63;1.13;;;9.60;99.90;;;;;;5088684;28;20130;-81
2021/10/16 01:02:23;;;;;;;5.97;1.15;;;9.60;99.90;;;;;;5074904;28;20054;-81
2021/10/16 01:04:48;;;;;;;8.45;1.17;;;9.60;99.90;;;;;;5083733;28;20105;-81
2021/10/16 01:07:15;;;;;;;11.18;2.10;;;9.60;99.90;;;;;;5084872;28;20043;-81
2021/10/16 01:09:43;;;;;;;10.40;1.13;;;9.60;99.90;;;;;;5118851;27;20561;-81
2021/10/16 01:12:09;;;;;;;8.45;1.58;;;9.60;99.90;;;;;;5082072;28;20044;-81
2021/10/16 01:14:43;;;;;;;12.93;2.35;;;9.60;99.90;;;;;;5118826;27;20074;-81
2021/10/16 01:17:11;;;;;;;8.95;1.30;;;9.50;99.90;;;;;;5095375;28;20044;-81
2021/10/16 01:19:40;;;;;;;8.57;1.77;;;9.60;99.90;;;;;;5086692;28;20038;-80
2021/10/16 01:22:07;;;;;;;9.55;1.40;;;9.60;99.90;;;;;;5135640;27;20043;-81
2021/10/16 01:24:35;;;;;;;8.70;1.30;;;9.60;99.90;;;;;;5090098;28;20036;-81
2021/10/16 01:27:01;;;;;;;8.38;1.48;;;9.60;99.90;;;;;;5121518;27;20127;-81
2021/10/16 01:29:29;;;;;;;10.13;1.35;;;9.60;99.90;;;;;;5087450;28;20505;-81
2021/10/16 01:31:59;;;;;;;8.60;1.10;;;9.60;99.90;;;;;;5073610;28;20044;-81
2021/10/16 01:34:25;;;;;;;13.18;2.67;;;9.60;99.90;;;;;;5098972;28;20048;-81
2021/10/16 01:36:51;;;;;;;11.73;1.38;;;9.60;99.90;;;;;;5079294;28;20057;-81
2021/10/16 01:39:18;;;;;;;8.05;1.30;;;9.70;99.90;;;;;;5089241;28;20486;-81
2021/10/16 01:41:45;;;;;;;6.65;1.80;;;9.70;99.90;;;;;;5104669;28;20036;-81
2021/10/16 01:44:11;;;;;;;12.57;1.30;;;9.80;99.90;;;;;;5121276;27;20066;-81
2021/10/16 01:46:38;;;;;;;8.38;1.17;;;9.80;99.90;;;;;;5125330;27;20085;-81
2021/10/16 01:49:11;;;;;;;12.60;1.60;;;9.80;99.90;;;;;;5140805;27;20048;-81
2021/10/16 01:51:38;;;;;;;5.35;1.00;;;9.80;99.90;;;;;;5123200;27;20498;-81
2021/10/16 01:54:05;;;;;;;6.93;1.33;;;9.80;99.90;;;;;;5104404;28;20052;-81
2021/10/16 01:56:31;;;;;;;7.10;1.10;;;9.80;99.90;;;;;;5072712;28;20051;-81
2021/10/16 01:59:30;;;;;;;6.72;1.17;;;9.80;99.90;;;;;;5124268;27;20047;-81
2021/10/16 02:01:56;;;;;;;9.77;1.02;;;9.80;99.90;;;;;;5104269;28;20420;-81
2021/10/16 02:04:22;;;;;;;4.40;1.15;;;9.80;99.90;;;;;;5085742;28;20056;-81
2021/10/16 02:06:48;;;;;;;9.52;1.38;;;9.80;99.90;;;;;;5070293;28;20084;-81
2021/10/16 02:09:14;;;;;;;10.98;2.08;;;9.80;99.90;;;;;;5116756;27;20040;-81
2021/10/16 02:11:40;;;;;;;10.68;1.92;;;9.80;99.90;;;;;;5088829;28;20150;-81
2021/10/16 02:14:10;;;;;;;8.65;1.70;;;9.80;99.90;;;;;;5105937;28;20051;-81
2021/10/16 02:16:35;;;;;;;9.38;1.17;;;9.80;99.90;;;;;;5090293;28;20051;-81
2021/10/16 02:19:02;;;;;;;14.30;1.70;;;9.80;99.90;;;;;;5141443;27;20043;-81
2021/10/16 02:21:29;;;;;;;8.25;2.35;;;9.80;99.90;;;;;;5124075;27;20047;-81
2021/10/16 02:23:55;;;;;;;10.63;1.50;;;9.90;99.90;;;;;;5123509;27;20062;-81
2021/10/16 02:26:20;;;;;;;13.70;1.63;;;9.90;99.90;;;;;;5087242;28;20048;-81
2021/10/16 02:28:46;;;;;;;9.93;1.10;;;9.90;99.90;;;;;;5087499;27;20509;-81
2021/10/16 02:31:12;;;;;;;9.73;1.50;;;9.90;99.90;;;;;;5110609;27;20031;-81
2021/10/16 02:33:38;;;;;;;11.82;1.55;;;9.90;99.90;;;;;;5075051;28;20097;-81
2021/10/16 02:36:03;;;;;;;9.18;1.40;;;9.90;99.90;;;;;;5107047;28;20050;-81
2021/10/16 02:38:29;;;;;;;13.48;1.50;;;9.90;99.90;;;;;;5058198;27;20100;-81
2021/10/16 02:40:55;;;;;;;11.23;1.60;;;9.90;99.90;;;;;;5110651;27;20050;-81
2021/10/16 02:43:21;;;;;;;9.68;1.50;;;9.90;99.90;;;;;;5114476;27;20437;-81
2021/10/16 02:45:47;;;;;;;9.73;1.35;;;9.90;99.90;;;;;;5091293;28;20122;-81
2021/10/16 02:48:12;;;;;;;14.70;1.50;;;9.90;99.90;;;;;;5082037;27;20043;-81
2021/10/16 02:50:38;;;;;;;9.50;1.60;;;9.90;99.90;;;;;;5093815;28;20036;-81
2021/10/16 02:53:04;;;;;;;12.43;1.77;;;9.90;99.90;;;;;;5099323;27;20039;-81
2021/10/16 02:55:29;;;;;;;12.80;1.52;;;9.90;99.90;;;;;;5080205;28;20502;-81
2021/10/16 02:57:55;;;;;;;7.05;1.70;;;10.00;99.90;;;;;;5073178;28;20058;-81
2021/10/16 03:00:21;;;;;;;9.38;1.70;;;10.00;99.90;;;;;;5075180;28;20039;-81
2021/10/16 03:02:47;;;;;;;6.95;1.25;;;10.00;99.90;;;;;;5089910;28;20157;-81
2021/10/16 03:05:13;;;;;;;11.50;1.42;;;10.00;99.90;;;;;;5082697;28;20051;-81
2021/10/16 03:07:38;;;;;;;13.80;1.65;;;10.00;99.90;;;;;;5109902;28;20049;-81
2021/10/16 03:10:05;;;;;;;12.93;2.22;;;10.00;99.90;;;;;;5076543;28;20040;-81
2021/10/16 03:12:30;;;;;;;8.60;1.50;;;10.00;99.90;;;;;;5090376;28;20052;-81
2021/10/16 03:14:56;;;;;;;13.52;2.03;;;10.00;99.90;;;;;;5071373;28;20051;-81
2021/10/16 03:17:22;;;;;;;16.80;2.05;;;10.10;99.90;;;;;;5106752;28;20402;-81
2021/10/16 03:19:47;;;;;;;12.50;1.52;;;10.00;99.90;;;;;;5071940;28;21309;-81
2021/10/16 03:22:13;;;;;;;8.32;1.38;;;10.00;99.90;;;;;;5089604;28;20055;-81
2021/10/16 03:24:39;;;;;;;9.30;1.45;;;10.00;99.90;;;;;;5071655;28;20035;-81
2021/10/16 03:27:06;;;;;;;9.95;1.40;;;10.10;99.90;;;;;;5123108;28;20043;-81
2021/10/16 03:29:32;;;;;;;9.48;1.38;;;10.10;99.90;;;;;;5122689;28;20047;-81
2021/10/16 03:31:59;;;;;;;10.18;2.17;;;10.00;99.90;;;;;;5105971;28;20054;-81
2021/10/16 03:34:27;;;;;;;11.38;2.60;;;10.00;99.90;;;;;;5123079;28;20039;-81
2021/10/16 03:36:53;;;;;;;9.30;1.67;;;10.00;99.90;;;;;;5122432;28;20044;-81
2021/10/16 03:39:19;;;;;;;8.25;1.20;;;10.00;99.90;;;;;;5089187;28;20082;-81
2021/10/16 03:41:45;;;;;;;16.10;2.53;;;10.00;99.90;;;;;;5143333;27;20071;-81
2021/10/16 03:44:11;;;;;;;11.57;1.50;;;10.00;99.90;;;;;;5110513;28;20075;-81
2021/10/16 03:46:36;;;;;;;9.20;2.05;;;10.00;99.90;;;;;;5092825;28;20107;-81
2021/10/16 03:49:02;;;;;;;7.00;0.90;;;10.00;99.90;;;;;;5076078;28;20051;-81
2021/10/16 03:51:28;;;;;;;8.18;1.35;;;10.00;99.90;;;;;;5109490;28;20042;-81
2021/10/16 03:53:54;;;;;;;15.40;1.75;;;9.90;99.90;;;;;;5110234;28;20086;-81
2021/10/16 03:56:19;;;;;;;11.07;1.30;;;10.00;99.90;;;;;;5127972;27;20088;-81
2021/10/16 03:58:45;;;;;;;5.40;1.02;;;9.90;99.90;;;;;;5111081;28;20055;-81
2021/10/16 04:01:11;;;;;;;7.68;1.50;;;9.90;99.90;;;;;;5109470;28;20046;-81
2021/10/16 04:03:37;;;;;;;7.60;1.70;;;9.90;99.90;;;;;;5109475;28;20496;-81
2021/10/16 04:06:03;;;;;;;10.68;1.25;;;9.90;99.90;;;;;;5126645;27;20051;-81
2021/10/16 04:08:29;;;;;;;7.60;1.45;;;9.90;99.90;;;;;;5127150;27;20118;-81
2021/10/16 04:10:55;;;;;;;13.05;2.00;;;10.00;99.90;;;;;;5099787;28;20036;-81
2021/10/16 04:13:20;;;;;;;4.75;1.20;;;9.90;99.90;;;;;;5111210;28;20054;-81
2021/10/16 04:15:46;;;;;;;4.97;1.10;;;9.90;99.90;;;;;;5092502;28;20047;-81
2021/10/16 04:18:12;;;;;;;10.45;1.63;;;9.90;99.90;;;;;;5106190;28;20035;-81
2021/10/16 04:20:38;;;;;;;8.70;1.38;;;9.90;99.90;;;;;;5092713;28;20526;-81
2021/10/16 04:23:04;;;;;;;7.57;1.30;;;9.90;99.90;;;;;;5124977;27;20397;-81
2021/10/16 04:25:30;;;;;;;10.70;1.63;;;9.90;99.90;;;;;;5112436;27;20264;-81
2021/10/16 04:27:56;;;;;;;8.45;1.67;;;9.90;99.90;;;;;;5096849;28;20495;-81
2021/10/16 04:30:22;;;;;;;5.45;1.02;;;9.90;99.90;;;;;;5078834;27;20043;-81
2021/10/16 04:32:48;;;;;;;6.15;1.23;;;9.90;99.90;;;;;;5121148;27;20109;-81
2021/10/16 04:35:14;;;;;;;6.47;1.70;;;9.90;99.90;;;;;;5091114;28;20837;-81
2021/10/16 04:37:40;;;;;;;11.32;1.33;;;9.90;99.90;;;;;;5100871;27;20045;-81
2021/10/16 04:40:24;;;;;;;7.38;1.10;;;9.90;99.90;;;;;;5118112;27;20051;-81
2021/10/16 04:42:51;;;;;;;8.25;1.75;;;9.90;99.90;;;;;;5103572;27;20051;-81
2021/10/16 04:45:17;;;;;;;15.00;1.60;;;9.90;99.90;;;;;;5078047;28;20505;-81
2021/10/16 04:47:43;;;;;;;5.00;1.25;;;9.90;99.90;;;;;;5076738;28;20110;-81
2021/10/16 04:50:10;;;;;;;5.35;1.35;;;9.80;99.90;;;;;;5126678;27;20048;-81
2021/10/16 04:52:37;;;;;;;11.77;1.40;;;9.80;99.90;;;;;;5105387;28;20048;-81
2021/10/16 04:55:04;;;;;;;5.22;1.33;;;9.80;99.90;;;;;;5109111;28;20048;-81
2021/10/16 04:57:30;;;;;;;10.77;1.50;;;9.80;99.90;;;;;;5126906;27;20051;-81
2021/10/16 04:59:56;;;;;;;8.05;1.50;;;9.80;99.90;;;;;;5127758;27;20047;-81
2021/10/16 05:02:24;;;;;;;5.03;1.25;;;9.80;99.90;;;;;;5091012;28;20043;-81
2021/10/16 05:04:54;;;;;;;7.07;1.30;;;9.80;99.90;;;;;;5141828;27;20055;-81
2021/10/16 05:07:20;;;;;;;6.43;1.70;;;9.80;99.90;;;;;;5107266;28;20079;-81
2021/10/16 05:09:48;;;;;;;7.18;1.65;;;9.80;99.90;;;;;;5091101;28;20043;-81
2021/10/16 05:12:14;;;;;;;3.88;1.05;;;9.80;99.90;;;;;;5109967;28;20040;-81
2021/10/16 05:14:40;;;;;;;8.02;1.40;;;9.70;99.90;;;;;;5091780;28;20487;-81
2021/10/16 05:17:06;;;;;;;3.72;0.90;;;9.80;99.90;;;;;;5091818;28;20047;-81
2021/10/16 05:19:32;;;;;;;9.00;1.50;;;9.80;99.90;;;;;;5098531;28;20031;-81
2021/10/16 05:21:58;;;;;;;10.13;1.35;;;9.70;99.90;;;;;;5074341;28;20525;-81
2021/10/16 05:24:24;;;;;;;7.03;1.48;;;9.80;99.90;;;;;;5083919;27;20043;-81
2021/10/16 05:26:49;;;;;;;7.82;1.52;;;9.70;99.90;;;;;;5095194;27;20039;-81
2021/10/16 05:29:15;;;;;;;10.15;1.88;;;9.70;99.90;;;;;;5088287;28;20086;-81
2021/10/16 05:31:41;;;;;;;5.35;1.15;;;9.70;99.90;;;;;;5092368;28;20039;-81
2021/10/16 05:34:07;;;;;;;8.18;1.20;;;9.70;99.90;;;;;;5090817;28;20055;-81
2021/10/16 05:36:32;;;;;;;7.28;1.27;;;9.80;99.90;;;;;;5113394;27;20072;-81
2021/10/16 05:38:58;;;;;;;10.50;1.52;;;9.80;99.90;;;;;;5124261;27;20438;-81
2021/10/16 05:41:24;;;;;;;5.47;1.17;;;9.80;99.90;;;;;;5108073;28;20047;-81
2021/10/16 05:43:49;;;;;;;5.57;1.17;;;9.80;99.90;;;;;;5125761;27;20565;-81
2021/10/16 05:46:15;;;;;;;4.40;1.50;;;9.90;99.90;;;;;;5090895;28;20035;-81
2021/10/16 05:48:41;;;;;;;7.15;1.30;;;9.80;99.90;;;;;;5107873;28;20908;-81
2021/10/16 05:51:07;;;;;;;5.65;1.10;;;9.80;99.90;;;;;;5095622;28;20071;-81
2021/10/16 05:53:32;;;;;;;6.28;1.10;;;9.80;99.90;;;;;;5073984;28;20039;-81
2021/10/16 05:55:58;;;;;;;4.18;1.30;;;9.80;99.90;;;;;;5100251;27;20035;-81
2021/10/16 05:58:25;;;;;;;7.30;1.40;;;9.80;99.90;;;;;;5102029;27;20055;-81
2021/10/16 06:00:51;;;;;;;4.90;1.45;;;9.80;99.90;;;;;;5113349;27;20096;-81
2021/10/16 06:03:17;;;;;;;10.35;1.73;;;9.80;99.90;;;;;;5089890;28;20055;-81
2021/10/16 06:05:43;;;;;;;6.68;1.55;;;9.80;99.90;;;;;;5116001;27;20079;-81
2021/10/16 06:08:09;;;;;;;5.03;1.00;;;9.80;99.90;;;;;;5106627;28;20469;-81
2021/10/16 06:10:35;;;;;;;6.72;1.17;;;9.80;99.90;;;;;;5109156;27;20515;-81
2021/10/16 06:13:01;;;;;;;5.90;1.30;;;9.80;99.90;;;;;;5089844;28;20050;-81
2021/10/16 06:15:26;;;;;;;6.55;1.15;;;9.80;99.90;;;;;;5075216;28;20559;-81
2021/10/16 06:17:52;;;;;;;7.40;1.63;;;9.80;99.90;;;;;;5075170;28;20051;-82
2021/10/16 06:20:18;;;;;;;7.30;1.20;;;9.80;99.90;;;;;;5074794;27;20039;-83
2021/10/16 06:22:44;;;;;;;11.35;1.35;;;9.80;99.90;;;;;;5087463;28;20479;-84
2021/10/16 06:25:10;;;;;;;7.28;1.40;;;9.80;99.90;;;;;;5068746;27;20042;-83
2021/10/16 06:27:36;;;;;;;9.63;1.55;;;9.80;99.90;;;;;;5072744;28;20051;-84
2021/10/16 06:30:03;;;;;;;6.82;1.30;;;9.80;99.90;;;;;;5055428;28;20035;-84
2021/10/16 06:32:29;;;;;;;6.53;1.13;;;9.80;99.90;;;;;;5123696;27;20039;-83
2021/10/16 06:34:54;;;;;;;6.93;1.50;;;9.80;99.90;;;;;;5088963;28;20039;-83
2021/10/16 06:37:20;;;;;;;8.32;1.80;;;9.80;99.90;;;;;;5074503;28;20048;-84
2021/10/16 06:39:46;;;;;;;8.52;1.20;;;9.80;99.90;;;;;;5117829;27;20134;-83
2021/10/16 06:42:12;;;;;;;10.15;1.50;;;9.80;99.90;;;;;;5090192;28;20109;-81
2021/10/16 06:44:38;;;;;;;6.22;1.33;;;9.80;99.90;;;;;;5107315;27;20039;-81
2021/10/16 06:47:03;;;;;;;5.30;1.20;;;9.80;99.90;;;;;;5086053;27;20046;-81
2021/10/16 06:49:30;;;;;;;4.25;1.35;;;9.80;99.90;;;;;;5118159;27;20063;-81
2021/10/16 06:51:56;;;;;;;6.22;1.30;;;9.90;99.90;;;;;;5073335;28;20040;-81
2021/10/16 06:54:22;;;;;;;9.82;1.48;;;9.90;99.90;;;;;;5099690;27;20057;-81
2021/10/16 06:56:48;;;;;;;6.60;1.40;;;9.90;99.90;;;;;;5080970;27;20040;-86
2021/10/16 06:59:14;;;;;;;6.05;1.27;;;9.90;99.90;;;;;;5111270;27;20625;-84
2021/10/16 07:01:39;;;;;;;5.53;1.50;;;10.00;99.90;;;;;;5103037;27;20035;-84
2021/10/16 07:04:05;;;;;;;7.40;1.63;;;10.00;99.90;;;;;;5105885;28;20096;-83
2021/10/16 07:06:31;;;;;;;7.90;1.42;;;10.00;99.90;;;;;;5098872;28;20150;-83
2021/10/16 07:08:57;;;;;;;11.55;2.08;;;10.00;99.90;;;;;;5074630;28;20432;-87
2021/10/16 07:11:22;;;;;;;8.52;1.67;;;10.00;99.90;;;;;;5098047;28;20483;-84
2021/10/16 07:13:48;;;;;;;8.60;1.60;;;10.00;99.90;;;;;;5091840;28;20039;-83
2021/10/16 07:16:14;;;;;;;6.00;1.20;;;10.00;99.90;;;;;;5062552;28;20127;-82
2021/10/16 07:18:40;;;;;;;5.25;1.33;;;10.00;99.90;;;;;;5068302;28;20845;-81
2021/10/16 07:21:05;;;;;;;7.53;1.48;;;10.10;99.90;;;;;;5124537;28;20616;-81
2021/10/16 07:23:32;;;;;;;5.32;1.02;;;10.10;99.90;;;;;;5106504;28;20380;-81
2021/10/16 07:25:58;;;;;;;5.47;1.30;;;10.10;99.90;;;;;;5088999;28;20043;-81
2021/10/16 07:28:24;;;;;;;4.78;1.13;;;10.10;99.90;;;;;;5069435;28;20036;-82
2021/10/16 07:30:50;;;;;;;6.47;1.27;;;10.10;99.90;;;;;;5090907;28;20143;-81
2021/10/16 07:33:16;;;;;;;8.52;1.40;;;10.10;99.90;;;;;;5110052;28;20142;-81
2021/10/16 07:35:43;;;;;;;6.80;1.40;;;10.10;99.90;;;;;;5113974;28;20558;-81
2021/10/16 07:38:09;;;;;;;8.00;1.40;;;10.10;99.90;;;;;;5112676;28;20105;-81
2021/10/16 07:40:35;;;;;;;6.72;1.80;;;10.20;99.90;;;;;;5119429;28;20051;-81
2021/10/16 07:43:01;;;;;;;4.93;1.05;;;10.20;99.90;;;;;;5087841;28;20051;-81
2021/10/16 07:45:27;;;;;;;5.72;1.40;;;10.20;99.90;;;;;;5086286;28;20487;-82
2021/10/16 07:47:54;;;;;;;6.68;1.75;;;10.20;99.90;;;;;;5087608;28;20039;-81
2021/10/16 07:50:20;;;;;;;8.93;1.38;;;10.30;99.90;;;;;;5095009;28;20460;-81
2021/10/16 07:52:45;;;;;;;8.93;1.85;;;10.20;99.90;;;;;;5112566;27;20051;-81
2021/10/16 07:55:11;;;;;;;7.75;1.60;;;10.20;99.90;;;;;;5087301;28;20051;-82
2021/10/16 07:57:37;;;;;;;6.18;1.50;;;10.30;99.90;;;;;;5103693;28;20447;-82
2021/10/16 08:00:05;;;;;;;11.57;1.75;;;10.30;99.90;;;;;;5113018;28;20050;-82
2021/10/16 08:02:31;;;;;;;4.10;1.40;;;10.30;99.90;;;;;;5084617;28;20518;-81
2021/10/16 08:04:59;;;;;;;4.72;1.50;;;10.30;99.90;;;;;;5120116;27;20078;-81
2021/10/16 08:07:26;;;;;;;4.40;1.30;;;10.40;99.90;;;;;;5069075;28;20236;-82
2021/10/16 08:09:52;;;;;;;6.63;1.13;;;10.40;99.90;;;;;;5070494;28;20346;-82
2021/10/16 08:12:17;;;;;;;5.35;1.35;;;10.40;99.90;;;;;;5101691;28;20047;-81
2021/10/16 08:14:43;;;;;;;5.93;1.30;;;10.40;99.90;;;;;;5086905;28;20043;-82
2021/10/16 08:17:09;;;;;;;7.60;1.40;;;10.40;99.90;;;;;;5087373;28;20126;-82
2021/10/16 08:19:35;;;;;;;4.35;1.33;;;10.50;99.90;;;;;;5088896;28;20515;-82
2021/10/16 08:22:00;;;;;;;5.88;1.50;;;10.50;99.90;;;;;;5108516;28;20047;-83
2021/10/16 08:24:26;;;;;;;4.32;1.40;;;10.50;99.90;;;;;;5097366;28;20054;-82
2021/10/16 08:26:52;;;;;;;8.73;1.50;;;10.50;99.90;;;;;;5108397;27;20070;-82
2021/10/16 08:29:18;;;;;;;6.47;1.42;;;10.60;99.90;;;;;;5069250;28;20035;-81
2021/10/16 08:31:44;;;;;;;8.38;1.92;;;10.60;99.90;;;;;;5092812;28;20574;-82
2021/10/16 08:34:10;;;;;;;8.82;1.27;;;10.60;99.90;;;;;;5093133;28;20039;-82
2021/10/16 08:36:35;;;;;;;6.78;1.60;;;10.60;99.90;;;;;;5113796;27;20054;-82
2021/10/16 08:39:01;;;;;;;7.47;1.52;;;10.60;99.90;;;;;;5095655;27;20077;-81
2021/10/16 08:41:27;;;;;;;10.57;2.05;;;10.60;99.90;;;;;;5093410;28;20051;-82
2021/10/16 08:43:54;;;;;;;4.78;1.40;;;10.70;99.90;;;;;;5109600;28;20036;-81
2021/10/16 08:46:20;;;;;;;7.35;1.60;;;10.70;99.90;;;;;;5124532;27;20051;-81
2021/10/16 08:48:46;;;;;;;6.50;2.05;;;10.70;99.90;;;;;;5081121;28;20491;-81
2021/10/16 08:51:12;;;;;;;7.78;1.38;;;10.70;99.90;;;;;;5107916;27;20046;-81
2021/10/16 08:53:38;;;;;;;7.25;1.95;;;10.80;99.90;;;;;;5107966;28;20375;-81
2021/10/16 08:56:04;;;;;;;8.20;1.30;;;10.80;99.90;;;;;;5118358;27;20538;-82
2021/10/16 08:58:32;;;;;;;7.85;1.50;;;10.80;99.90;;;;;;5090699;28;20036;-81
2021/10/16 09:00:59;;;;;;;9.60;1.58;;;10.80;99.90;;;;;;5130657;27;20054;-81
2021/10/16 09:03:33;;;;;;;10.55;2.10;;;10.80;99.90;;;;;;5076311;28;20056;-82
2021/10/16 09:06:09;;;;;;;11.98;1.98;;;10.90;99.90;;;;;;5100325;27;20044;-82
2021/10/16 09:08:34;;;;;;;7.68;1.55;;;10.90;99.90;;;;;;5085178;27;20031;-82
2021/10/16 09:11:15;;;;;;;7.90;2.10;;;10.90;99.90;;;;;;5090384;28;20551;-82
2021/10/16 09:13:43;;;;;;;8.73;1.60;;;10.90;99.90;;;;;;5082411;28;20517;-82
2021/10/16 09:16:32;;;;;;;11.35;2.35;;;11.00;99.90;;;;;;5102408;27;20063;-82
2021/10/16 09:19:00;;;;;;;9.30;1.95;;;11.00;99.90;;;;;;5088785;27;20075;-82
2021/10/16 09:21:28;;;;;;;11.10;2.17;;;11.00;99.90;;;;;;5107312;27;20461;-82
2021/10/16 09:24:13;;;;;;;9.20;2.05;;;11.10;99.90;;;;;;5109374;27;20031;-82
2021/10/16 09:26:42;;;;;;;7.45;1.60;;;11.10;99.90;;;;;;5109204;27;20122;-82
2021/10/16 09:29:10;;;;;;;9.50;1.80;;;11.10;99.90;;;;;;5091889;28;20438;-81
2021/10/16 09:31:45;;;;;;;14.30;1.60;;;11.20;99.90;;;;;;5091908;28;20092;-81
2021/10/16 09:34:11;;;;;;;9.15;1.70;;;11.20;99.90;;;;;;5109180;28;20084;-82
2021/10/16 09:36:39;;;;;;;13.93;1.67;;;11.20;99.90;;;;;;5074808;28;20043;-81
2021/10/16 09:39:07;;;;;;;8.85;1.70;;;11.30;99.90;;;;;;5091193;28;20043;-81
2021/10/16 09:41:39;;;;;;;8.70;2.08;;;11.30;99.90;;;;;;5109185;28;20082;-81
2021/10/16 09:44:18;;;;;;;5.90;1.40;;;11.30;99.90;;;;;;5092323;28;20089;-81
2021/10/16 09:47:12;;;;;;;9.13;1.75;;;11.30;99.90;;;;;;5143871;27;20099;-81
2021/10/16 09:49:53;;;;;;;13.30;1.50;;;11.40;99.90;;;;;;5106538;28;20058;-81
2021/10/16 09:52:20;;;;;;;5.50;1.45;;;11.30;99.90;;;;;;5109079;28;20043;-81
2021/10/16 09:54:50;;;;;;;12.80;1.42;;;11.30;99.90;;;;;;5107808;28;20494;-81
2021/10/16 09:57:21;;;;;;;10.27;1.50;;;11.40;99.90;;;;;;5088315;28;20097;-81
2021/10/16 09:59:47;;;;;;;6.68;1.38;;;11.40;99.90;;;;;;5106985;28;20047;-81
2021/10/16 10:02:14;;;;;;;8.93;1.83;;;11.40;99.90;;;;;;5107879;28;20521;-80
2021/10/16 10:04:45;;;;;;;9.35;1.98;;;11.40;99.90;;;;;;5108222;28;20066;-81
2021/10/16 10:07:12;;;;;;;11.50;1.80;;;11.40;99.90;;;;;;5108407;28;20075;-82
2021/10/16 10:09:40;;;;;;;10.55;1.92;;;11.50;99.90;;;;;;5093914;28;20487;-84
2021/10/16 10:12:08;;;;;;;8.32;1.60;;;11.50;99.90;;;;;;5092438;28;20043;-84
2021/10/16 10:14:34;;;;;;;7.55;1.63;;;11.50;99.90;;;;;;5100481;28;20047;-84
2021/10/16 10:17:04;;;;;;;9.10;2.17;;;11.50;99.90;;;;;;5110582;27;20119;-83
2021/10/16 10:19:35;;;;;;;15.77;1.45;;;11.50;99.90;;;;;;5105017;28;20531;-83
2021/10/16 10:22:01;;;;;;;11.40;1.77;;;11.50;99.90;;;;;;5129914;27;20048;-81
2021/10/16 10:24:45;;;;;;;10.13;1.55;;;11.60;99.90;;;;;;5090733;27;20039;-81
2021/10/16 10:27:12;;;;;;;9.15;1.75;;;11.60;99.90;;;;;;5120117;27;20045;-82
2021/10/16 10:29:40;;;;;;;7.53;1.50;;;11.60;99.90;;;;;;5078687;28;20035;-82
2021/10/16 10:32:21;;;;;;;7.30;1.48;;;11.70;99.90;;;;;;5090677;28;20071;-82
2021/10/16 10:34:56;;;;;;;7.53;1.40;;;11.60;99.90;;;;;;5108004;27;20040;-84
2021/10/16 10:37:29;;;;;;;7.30;1.58;;;11.70;99.90;;;;;;5091681;28;20047;-85
2021/10/16 10:39:59;;;;;;;8.57;1.42;;;11.70;99.90;;;;;;5111335;27;20039;-83
2021/10/16 10:42:25;;;;;;;7.50;1.30;;;11.70;99.90;;;;;;5107922;28;20042;-84
2021/10/16 10:44:59;;;;;;;8.07;1.52;;;11.80;99.90;;;;;;5107762;27;20035;-84
2021/10/16 10:47:35;;;;;;;11.85;1.30;;;11.80;99.90;;;;;;5109279;27;20054;-85
2021/10/16 10:50:05;;;;;;;7.25;1.13;;;11.80;99.90;;;;;;5122267;27;20044;-84
2021/10/16 10:53:05;;;;;;;7.05;1.20;;;11.80;99.90;;;;;;5125808;27;20113;-84
2021/10/16 10:55:56;;;;;;;4.40;1.15;;;11.90;99.90;;;;;;5113080;27;20065;-84
2021/10/16 10:58:24;;;;;;;6.45;1.15;;;11.90;99.90;;;;;;5088910;28;20043;-81
2021/10/16 11:00:52;;;;;;;10.13;1.85;;;11.90;99.90;;;;;;5078915;28;20070;-81
2021/10/16 11:03:30;;;;;;;7.43;1.17;;;11.90;99.90;;;;;;5071927;28;20055;-81
2021/10/16 11:06:17;;;;;;;7.80;1.58;;;12.00;99.90;;;;;;5083157;28;20039;-81
2021/10/16 11:08:45;;;;;;;6.55;1.10;;;12.00;99.90;;;;;;5070243;28;20051;-81
2021/10/16 11:11:11;;;;;;;7.07;1.83;;;12.00;99.90;;;;;;5078058;28;20032;-81
2021/10/16 11:13:38;;;;;;;9.77;1.52;;;12.00;99.90;;;;;;5083796;28;20066;-81
2021/10/16 11:16:05;;;;;;;6.53;1.08;;;12.10;99.90;;;;;;5089477;28;20164;-81
2021/10/16 11:18:32;;;;;;;8.73;1.13;;;12.10;99.90;;;;;;5087555;28;20688;-81
2021/10/16 11:21:10;;;;;;;6.93;1.70;;;12.10;99.90;;;;;;5075082;28;20050;-81
2021/10/16 11:23:39;;;;;;;14.15;1.40;;;12.10;99.90;;;;;;5107222;28;20047;-81
2021/10/16 11:26:11;;;;;;;5.60;1.10;;;12.20;99.90;;;;;;5103304;28;20043;-81
2021/10/16 11:28:39;;;;;;;9.52;2.22;;;12.20;99.90;;;;;;5097856;28;20031;-81
2021/10/16 11:31:09;;;;;;;6.25;1.30;;;12.30;99.90;;;;;;5075961;28;20108;-80
2021/10/16 11:33:39;;;;;;;12.85;2.40;;;12.30;99.90;;;;;;5071387;28;20035;-81
2021/10/16 11:36:06;;;;;;;12.40;1.95;;;12.30;99.90;;;;;;5106417;28;20082;-81
2021/10/16 11:38:36;;;;;;;10.13;1.90;;;12.30;99.90;;;;;;5100328;28;20453;-81
2021/10/16 11:41:03;;;;;;;13.57;2.55;;;12.40;99.90;;;;;;5105642;28;20044;-81
2021/10/16 11:43:38;;;;;;;16.38;2.55;;;12.40;99.90;;;;;;5098643;28;20048;-81
2021/10/16 11:46:14;;;;;;;9.95;2.47;;;12.40;99.90;;;;;;5063494;28;20440;-81
2021/10/16 11:48:40;;;;;;;11.15;2.50;;;12.40;99.90;;;;;;5106328;28;20076;-81
2021/10/16 11:51:07;;;;;;;11.05;1.98;;;12.40;99.90;;;;;;5088676;28;20150;-81
2021/10/16 11:53:35;;;;;;;10.23;2.50;;;12.40;99.90;;;;;;5125058;28;20472;-81
2021/10/16 11:56:07;;;;;;;13.27;2.60;;;12.40;99.90;;;;;;5107592;28;20051;-81
2021/10/16 11:58:34;;;;;;;11.43;1.80;;;12.40;99.90;;;;;;5106243;28;20055;-81
2021/10/16 12:01:02;;;;;;;12.05;1.75;;;12.30;99.90;;;;;;5089254;28;20050;-81
2021/10/16 12:03:31;;;;;;;9.63;2.08;;;12.30;99.90;;;;;;5092055;28;20087;-81
2021/10/16 12:06:00;;;;;;;8.38;2.10;;;12.30;99.90;;;;;;5111711;27;20039;-81
2021/10/16 12:08:29;;;;;;;15.05;2.63;;;12.30;99.90;;;;;;5097526;27;20046;-81
2021/10/16 12:10:55;;;;;;;12.40;1.70;;;12.30;99.90;;;;;;5120320;27;20062;-81
2021/10/16 12:13:35;;;;;;;9.38;2.00;;;12.30;99.90;;;;;;5106123;27;20139;-81
2021/10/16 12:16:18;;;;;;;6.70;2.05;;;12.20;99.90;;;;;;5111847;27;20047;-81
2021/10/16 12:18:51;;;;;;;14.70;2.53;;;12.20;99.90;;;;;;5078903;28;20048;-81
2021/10/16 12:21:48;;;;;;;11.60;2.25;;;12.20;99.90;;;;;;5111281;28;20039;-81
2021/10/16 12:24:23;;;;;;;11.80;2.28;;;12.20;99.90;;;;;;5109442;27;20061;-81
2021/10/16 12:27:09;;;;;;;13.57;3.08;;;12.20;99.90;;;;;;5110546;28;20047;-81
2021/10/16 12:29:37;;;;;;;21.92;2.58;;;12.10;99.90;;;;;;5111625;27;20051;-81
2021/10/16 12:32:07;;;;;;;13.40;2.25;;;12.10;99.90;;;;;;5108805;28;20122;-81
2021/10/16 12:34:34;;;;;;;15.93;2.42;;;12.20;99.90;;;;;;5116397;27;20048;-81
2021/10/16 12:37:06;;;;;;;14.93;2.65;;;12.20;99.90;;;;;;5120703;27;20474;-81
2021/10/16 12:39:36;;;;;;;14.35;2.47;;;12.20;99.90;;;;;;5125207;27;20080;-80
2021/10/16 12:42:22;;;;;;;18.42;2.88;;;12.30;99.90;;;;;;5110182;28;20499;-81
2021/10/16 12:44:49;;;;;;;15.30;4.00;;;12.30;99.90;;;;;;5099292;28;20039;-80
2021/10/16 12:47:26;;;;;;;13.10;2.25;;;12.30;99.90;;;;;;5110048;28;20043;-80
2021/10/16 12:49:53;;;;;;;13.80;2.80;;;12.40;99.90;;;;;;5088503;28;20117;-81
2021/10/16 12:52:45;;;;;;;20.98;3.28;;;12.40;99.90;;;;;;5110370;28;20054;-81